Time;durP1;ratioP1;P1;durP2;ratioP2;P2;SDS_P1;SDS_P2;PMS_P1;PMS_P2;Temp;Humidity;BMP_temperature;BMP_pressure;BME280_temperature;BME280_humidity;BME280_pressure;Samples;Min_cycle;Max_cycle;Signal;HPM_P1;HPM_P2
2022/04/23 00:01:57;;;;;;;20.17;17.73;;;;;;;11.09;100.00;97941.88;5049298;28;20239;-79
2022/04/23 00:04:28;;;;;;;21.83;19.27;;;;;;;11.11;100.00;97941.78;5069107;28;20375;-79
2022/04/23 00:06:58;;;;;;;20.80;18.03;;;;;;;11.12;100.00;97935.50;5068102;28;20196;-78
2022/04/23 00:09:28;;;;;;;21.73;18.67;;;;;;;11.05;100.00;97934.34;5039613;28;20184;-78
2022/04/23 00:12:02;;;;;;;21.20;18.73;;;;;;;11.09;100.00;97936.59;5069869;28;20188;-78
2022/04/23 00:14:30;;;;;;;23.53;18.27;;;;;;;11.06;100.00;97934.22;5070113;28;20203;-79
2022/04/23 00:17:00;;;;;;;21.10;17.83;;;;;;;11.16;100.00;97932.44;5030313;28;20660;-80
2022/04/23 00:19:29;;;;;;;20.57;18.00;;;;;;;11.10;100.00;97925.06;5027779;28;20217;-79
2022/04/23 00:21:59;;;;;;;22.03;17.53;;;;;;;11.09;100.00;97926.00;5021448;28;20226;-79
2022/04/23 00:24:27;;;;;;;23.80;18.20;;;;;;;10.99;100.00;97927.75;5026559;28;20198;-78
2022/04/23 00:26:56;;;;;;;21.67;18.20;;;;;;;11.00;100.00;97929.47;5025127;28;20201;-79
2022/04/23 00:29:24;;;;;;;21.67;17.43;;;;;;;10.95;100.00;97923.69;5028511;28;20205;-79
2022/04/23 00:31:56;;;;;;;20.40;17.00;;;;;;;11.02;100.00;97916.06;5028323;28;20205;-79
2022/04/23 00:34:25;;;;;;;20.47;17.13;;;;;;;10.94;100.00;97922.03;5028124;28;20190;-79
2022/04/23 00:36:53;;;;;;;20.70;18.00;;;;;;;11.03;100.00;97920.41;5027112;28;20205;-79
2022/04/23 00:39:25;;;;;;;23.87;17.77;;;;;;;10.91;100.00;97922.28;5026090;28;20193;-79
2022/04/23 00:41:57;;;;;;;19.00;16.93;;;;;;;10.94;100.00;97923.84;5054866;28;20231;-79
2022/04/23 00:44:27;;;;;;;22.77;17.77;;;;;;;10.76;100.00;97921.78;5073014;28;20204;-79
2022/04/23 00:46:55;;;;;;;21.17;17.20;;;;;;;10.80;100.00;97923.19;5075460;28;20196;-79
2022/04/23 00:49:23;;;;;;;20.10;17.13;;;;;;;10.88;100.00;97918.06;5072985;28;20232;-78
2022/04/23 00:51:54;;;;;;;19.83;16.77;;;;;;;10.89;100.00;97921.56;5069525;28;20195;-79
2022/04/23 00:54:24;;;;;;;20.13;16.93;;;;;;;10.88;100.00;97920.72;5071126;28;20208;-79
2022/04/23 00:56:53;;;;;;;22.70;17.07;;;;;;;10.78;100.00;97921.63;5075447;28;20204;-79
2022/04/23 00:59:21;;;;;;;18.90;16.00;;;;;;;10.74;100.00;97926.38;5071469;28;20192;-79
2022/04/23 01:01:53;;;;;;;19.23;15.87;;;;;;;10.82;100.00;97920.44;5054400;28;20258;-79
2022/04/23 01:04:22;;;;;;;20.27;17.00;;;;;;;10.68;100.00;97929.53;5071629;28;20249;-79
2022/04/23 01:06:53;;;;;;;18.37;16.30;;;;;;;10.79;100.00;97920.66;5074976;28;20648;-79
2022/04/23 01:09:27;;;;;;;20.00;16.07;;;;;;;10.80;100.00;97925.00;5075455;28;20227;-79
2022/04/23 01:12:01;;;;;;;17.60;15.60;;;;;;;10.82;100.00;97921.25;5073835;28;20223;-78
2022/04/23 01:14:31;;;;;;;17.87;15.93;;;;;;;10.98;100.00;97920.78;4989456;28;20705;-79
2022/04/23 01:17:03;;;;;;;20.67;15.50;;;;;;;10.87;100.00;97921.69;4991435;28;20214;-79
2022/04/23 01:19:34;;;;;;;17.80;15.37;;;;;;;10.89;100.00;97924.22;4992684;28;20197;-79
2022/04/23 01:22:05;;;;;;;18.00;15.17;;;;;;;10.95;100.00;97922.84;4985506;28;20221;-79
2022/04/23 01:24:34;;;;;;;16.13;14.10;;;;;;;11.06;100.00;97914.81;4990557;28;20206;-79
2022/04/23 01:27:05;;;;;;;17.67;14.87;;;;;;;10.99;100.00;97919.81;4992101;28;20214;-79
2022/04/23 01:29:34;;;;;;;18.27;14.67;;;;;;;10.98;100.00;97919.94;4932671;29;20208;-78
2022/04/23 01:32:05;;;;;;;17.20;14.70;;;;;;;10.66;100.00;97915.56;4952192;28;20194;-79
2022/04/23 01:34:34;;;;;;;17.03;14.97;;;;;;;10.68;100.00;97913.63;5012858;28;20224;-79
2022/04/23 01:37:08;;;;;;;17.53;14.23;;;;;;;10.76;100.00;97913.81;5012407;28;20197;-79
2022/04/23 01:39:36;;;;;;;18.00;14.90;;;;;;;10.76;100.00;97900.59;5009378;28;20206;-78
2022/04/23 01:42:05;;;;;;;16.50;14.37;;;;;;;10.69;100.00;97914.47;5010402;28;20218;-79
2022/04/23 01:44:35;;;;;;;18.20;14.90;;;;;;;10.55;100.00;97905.06;5004218;28;20780;-78
2022/04/23 01:47:04;;;;;;;16.07;13.93;;;;;;;10.70;100.00;97916.97;5026540;28;20191;-78
2022/04/23 01:49:34;;;;;;;16.93;14.40;;;;;;;10.83;100.00;97922.09;5074265;28;20231;-79
2022/04/23 01:52:02;;;;;;;17.00;13.90;;;;;;;10.71;100.00;97917.81;5072734;28;20196;-78
2022/04/23 01:54:36;;;;;;;15.27;13.67;;;;;;;10.88;100.00;97914.59;5067999;28;20196;-79
2022/04/23 01:57:05;;;;;;;17.87;14.07;;;;;;;10.80;100.00;97907.28;5072890;28;20249;-78
2022/04/23 01:59:34;;;;;;;17.63;13.97;;;;;;;10.75;100.00;97912.16;5069878;28;20227;-78
2022/04/23 02:02:03;;;;;;;17.27;13.90;;;;;;;10.89;100.00;97917.09;5071596;28;20276;-79
2022/04/23 02:04:32;;;;;;;16.97;14.43;;;;;;;10.82;100.00;97918.63;5069233;28;20224;-78
2022/04/23 02:07:02;;;;;;;16.83;14.20;;;;;;;10.90;100.00;97920.59;5068993;28;20222;-77
2022/04/23 02:09:34;;;;;;;17.47;14.37;;;;;;;10.88;100.00;97915.44;5066875;28;20208;-78
2022/04/23 02:12:04;;;;;;;15.77;13.27;;;;;;;10.92;100.00;97912.53;5072851;28;20197;-77
2022/04/23 02:14:33;;;;;;;16.67;13.37;;;;;;;11.08;100.00;97919.03;5070515;28;20200;-79
2022/04/23 02:17:01;;;;;;;15.37;13.53;;;;;;;11.07;100.00;97916.50;5073088;28;20192;-79
2022/04/23 02:19:33;;;;;;;16.23;13.80;;;;;;;11.08;100.00;97912.88;5038205;28;20216;-78
2022/04/23 02:22:06;;;;;;;17.23;14.40;;;;;;;10.92;100.00;97909.88;5073650;28;20200;-79
2022/04/23 02:24:38;;;;;;;17.07;13.80;;;;;;;11.10;100.00;97916.25;5079122;28;20239;-79
2022/04/23 02:27:07;;;;;;;17.13;14.00;;;;;;;10.92;100.00;97907.25;5052124;28;20193;-78
2022/04/23 02:29:36;;;;;;;14.90;13.37;;;;;;;10.91;100.00;97905.56;5072574;28;20196;-79
2022/04/23 02:32:06;;;;;;;17.83;13.40;;;;;;;10.87;100.00;97911.09;5073476;28;20199;-79
2022/04/23 02:34:35;;;;;;;18.03;13.50;;;;;;;10.94;100.00;97902.66;5073492;28;20195;-78
2022/04/23 02:37:07;;;;;;;16.70;13.17;;;;;;;10.96;100.00;97917.44;5072481;28;20227;-78
2022/04/23 02:39:37;;;;;;;14.03;12.47;;;;;;;10.85;100.00;97914.84;5070019;28;20231;-78
2022/04/23 02:42:09;;;;;;;15.53;13.67;;;;;;;10.92;100.00;97907.25;5073394;28;20315;-78
2022/04/23 02:44:37;;;;;;;13.83;12.40;;;;;;;10.98;100.00;97907.53;5054205;28;20185;-79
2022/04/23 02:47:08;;;;;;;14.77;12.93;;;;;;;11.05;100.00;97903.38;5070612;28;20193;-78
2022/04/23 02:49:37;;;;;;;15.63;12.83;;;;;;;11.14;100.00;97912.38;5068714;28;20231;-78
2022/04/23 02:52:06;;;;;;;18.30;12.87;;;;;;;11.20;100.00;97916.31;5047484;28;20219;-78
2022/04/23 02:54:38;;;;;;;13.17;11.80;;;;;;;11.05;100.00;97908.69;5048431;28;20193;-79
2022/04/23 02:57:08;;;;;;;13.67;12.20;;;;;;;11.07;100.00;97912.03;5044558;28;20217;-79
2022/04/23 02:59:37;;;;;;;13.67;12.13;;;;;;;11.12;100.00;97914.31;5042871;28;20204;-79
2022/04/23 03:02:05;;;;;;;14.77;12.83;;;;;;;11.13;100.00;97916.00;5048611;28;20199;-79
2022/04/23 03:04:34;;;;;;;17.10;13.03;;;;;;;11.26;100.00;97913.09;4954057;29;20224;-78
2022/04/23 03:07:04;;;;;;;15.53;13.20;;;;;;;10.99;100.00;97903.06;4921062;29;20269;-79
2022/04/23 03:09:32;;;;;;;12.97;11.47;;;;;;;11.00;100.00;97905.63;4923386;29;20204;-79
2022/04/23 03:12:02;;;;;;;13.17;11.57;;;;;;;10.92;100.00;97896.66;4950614;29;20283;-78
2022/04/23 03:14:33;;;;;;;15.43;12.13;;;;;;;10.91;100.00;97909.06;4914024;29;20205;-78
2022/04/23 03:17:02;;;;;;;13.70;11.73;;;;;;;10.98;100.00;97912.84;4905644;29;20216;-79
2022/04/23 03:19:34;;;;;;;14.80;11.77;;;;;;;10.88;100.00;97912.78;4912583;29;20205;-78
2022/04/23 03:22:03;;;;;;;15.27;12.10;;;;;;;10.85;100.00;97909.56;4903759;29;20221;-79
2022/04/23 03:24:38;;;;;;;14.53;11.63;;;;;;;10.92;100.00;97912.53;4915253;29;20345;-79
2022/04/23 03:27:07;;;;;;;15.47;12.30;;;;;;;10.82;100.00;97923.06;4933602;29;20212;-79
2022/04/23 03:29:38;;;;;;;13.17;11.77;;;;;;;10.96;100.00;97917.44;4990303;28;20238;-79
2022/04/23 03:32:10;;;;;;;13.23;11.83;;;;;;;10.81;100.00;97914.28;5025756;28;20197;-80
2022/04/23 03:34:38;;;;;;;13.97;11.90;;;;;;;10.78;100.00;97911.03;5025887;28;20204;-79
2022/04/23 03:37:07;;;;;;;13.90;12.40;;;;;;;10.75;100.00;97911.31;4988802;28;20188;-79
2022/04/23 03:39:37;;;;;;;13.50;11.73;;;;;;;10.79;100.00;97918.03;5025698;28;20193;-79
2022/04/23 03:42:08;;;;;;;13.60;11.57;;;;;;;10.83;100.00;97909.69;5049813;28;20189;-79
2022/04/23 03:44:38;;;;;;;12.87;11.57;;;;;;;10.71;100.00;97913.41;5015587;28;20212;-79
2022/04/23 03:47:08;;;;;;;13.97;11.87;;;;;;;10.75;100.00;97913.97;5013178;28;20198;-79
2022/04/23 03:49:36;;;;;;;14.57;12.97;;;;;;;10.69;100.00;97912.66;5011585;28;20378;-79
2022/04/23 03:52:05;;;;;;;13.43;11.93;;;;;;;10.81;100.00;97905.50;4998093;28;20213;-78
2022/04/23 03:54:34;;;;;;;14.30;12.27;;;;;;;10.72;100.00;97907.13;5019150;28;20239;-79
2022/04/23 03:57:06;;;;;;;15.40;12.20;;;;;;;10.85;100.00;97904.25;5045505;28;20189;-79
2022/04/23 03:59:35;;;;;;;14.80;12.80;;;;;;;10.90;100.00;97910.00;5028324;28;20197;-79
2022/04/23 04:02:05;;;;;;;14.50;12.27;;;;;;;10.87;100.00;97915.56;5045523;28;20196;-79
2022/04/23 04:04:34;;;;;;;14.60;12.83;;;;;;;10.71;100.00;97909.88;5051972;28;20243;-79
2022/04/23 04:07:06;;;;;;;14.53;12.70;;;;;;;10.56;100.00;97912.03;5075762;28;20200;-79
2022/04/23 04:09:34;;;;;;;15.37;13.03;;;;;;;10.63;100.00;97920.31;5036998;28;20220;-79
2022/04/23 04:12:02;;;;;;;15.07;12.90;;;;;;;10.65;100.00;97907.75;5029384;28;20267;-79
2022/04/23 04:14:34;;;;;;;16.70;13.77;;;;;;;10.58;100.00;97912.72;5029117;28;20197;-79
2022/04/23 04:17:09;;;;;;;14.50;13.00;;;;;;;10.70;100.00;97914.34;5030796;28;20202;-78
2022/04/23 04:19:38;;;;;;;14.90;13.33;;;;;;;10.69;100.00;97925.91;5034351;28;20201;-78
2022/04/23 04:22:08;;;;;;;14.90;13.40;;;;;;;10.58;100.00;97920.66;5029929;28;20202;-78
2022/04/23 04:24:39;;;;;;;16.10;14.10;;;;;;;10.62;100.00;97923.91;5034042;28;20715;-78
2022/04/23 04:27:09;;;;;;;15.13;13.53;;;;;;;10.72;100.00;97924.81;4986961;28;20278;-79
2022/04/23 04:29:39;;;;;;;15.93;13.80;;;;;;;10.80;100.00;97917.03;4986603;28;20199;-78
2022/04/23 04:32:09;;;;;;;16.13;14.07;;;;;;;10.81;100.00;97916.09;4989891;28;20217;-78
2022/04/23 04:34:38;;;;;;;17.23;14.60;;;;;;;10.83;100.00;97922.09;5001344;28;20222;-78
2022/04/23 04:37:09;;;;;;;16.57;14.73;;;;;;;10.75;100.00;97928.03;4969857;28;20247;-78
2022/04/23 04:39:39;;;;;;;16.57;14.57;;;;;;;10.91;100.00;97921.47;4971163;28;20218;-81
2022/04/23 04:42:08;;;;;;;18.63;15.03;;;;;;;10.97;100.00;97921.75;4969218;28;20210;-78
2022/04/23 04:44:38;;;;;;;17.97;15.33;;;;;;;10.99;100.00;97924.25;4990902;28;20220;-78
2022/04/23 04:47:09;;;;;;;17.00;14.87;;;;;;;11.17;100.00;97926.19;5015510;28;20239;-78
2022/04/23 04:49:38;;;;;;;19.77;15.23;;;;;;;11.21;100.00;97920.63;5047493;28;20228;-79
2022/04/23 04:52:07;;;;;;;18.53;15.67;;;;;;;11.11;100.00;97923.25;5050855;28;20196;-79
2022/04/23 04:54:36;;;;;;;17.97;14.80;;;;;;;11.19;100.00;97934.00;5053766;28;20200;-79
2022/04/23 04:57:08;;;;;;;17.97;15.27;;;;;;;11.21;100.00;97929.41;5068162;28;20204;-78
2022/04/23 04:59:37;;;;;;;20.63;16.03;;;;;;;11.36;100.00;97930.72;5070814;28;20196;-79
2022/04/23 05:02:08;;;;;;;18.80;15.03;;;;;;;11.44;100.00;97927.41;5068566;28;20204;-79
2022/04/23 05:04:36;;;;;;;17.37;15.50;;;;;;;11.40;100.00;97939.28;5053208;28;20281;-79
2022/04/23 05:07:05;;;;;;;17.10;15.27;;;;;;;11.47;100.00;97930.63;5072791;28;20196;-79
2022/04/23 05:09:34;;;;;;;19.07;15.70;;;;;;;11.38;100.00;97927.94;5074571;28;20188;-79
2022/04/23 05:12:03;;;;;;;18.60;16.03;;;;;;;11.40;100.00;97933.97;5074878;28;20199;-79
2022/04/23 05:14:32;;;;;;;18.67;16.47;;;;;;;11.36;100.00;97943.97;5031654;28;20293;-79
2022/04/23 05:17:10;;;;;;;19.17;16.30;;;;;;;11.49;100.00;97932.34;5029356;28;20225;-79
2022/04/23 05:19:38;;;;;;;19.33;15.97;;;;;;;11.67;100.00;97947.44;5027892;28;20267;-79
2022/04/23 05:22:09;;;;;;;18.17;16.17;;;;;;;11.66;100.00;97947.56;5031540;28;20202;-79
2022/04/23 05:24:38;;;;;;;17.63;15.73;;;;;;;11.60;100.00;97945.47;5030480;28;20221;-79
2022/04/23 05:27:10;;;;;;;20.10;16.40;;;;;;;11.68;100.00;97948.31;5030611;28;20197;-79
2022/04/23 05:29:39;;;;;;;19.10;15.80;;;;;;;11.73;100.00;97944.25;5021568;28;20206;-79
2022/04/23 05:32:11;;;;;;;20.40;15.87;;;;;;;11.69;100.00;97939.38;5040993;28;20223;-79
2022/04/23 05:34:40;;;;;;;20.23;16.30;;;;;;;11.65;100.00;97943.25;5070024;28;20632;-79
2022/04/23 05:37:09;;;;;;;19.90;16.27;;;;;;;11.76;100.00;97941.31;5070270;28;20267;-79
2022/04/23 05:39:37;;;;;;;19.23;15.87;;;;;;;11.74;100.00;97943.28;5070392;28;20208;-79
2022/04/23 05:42:06;;;;;;;19.50;16.30;;;;;;;11.76;100.00;97937.84;5006673;28;20190;-79
2022/04/23 05:44:35;;;;;;;18.67;16.40;;;;;;;11.44;100.00;97936.19;5005805;28;20230;-79
2022/04/23 05:47:05;;;;;;;22.07;16.27;;;;;;;11.45;100.00;97940.53;5012828;28;20209;-78
2022/04/23 05:49:38;;;;;;;19.43;16.37;;;;;;;11.42;100.00;97930.19;5008440;28;20245;-79
2022/04/23 05:52:19;;;;;;;21.47;16.37;;;;;;;11.52;100.00;97946.16;4968668;28;20202;-78
2022/04/23 05:54:47;;;;;;;19.30;16.20;;;;;;;11.63;100.00;97951.34;5003833;28;20198;-78
2022/04/23 05:57:18;;;;;;;19.07;15.57;;;;;;;11.60;100.00;97948.97;5010364;28;20214;-79
2022/04/23 05:59:47;;;;;;;19.23;15.33;;;;;;;11.68;100.00;97943.00;5031654;28;20191;-79
2022/04/23 06:02:15;;;;;;;19.10;15.67;;;;;;;11.78;100.00;97951.81;5083785;28;20245;-79
2022/04/23 06:04:48;;;;;;;20.37;16.47;;;;;;;11.77;100.00;97950.13;5047253;28;20277;-79
2022/04/23 06:07:19;;;;;;;20.27;15.63;;;;;;;11.65;100.00;97949.38;5009556;28;20194;-79
2022/04/23 06:09:49;;;;;;;17.70;15.80;;;;;;;11.85;100.00;97938.88;5006229;28;20198;-79
2022/04/23 06:12:17;;;;;;;18.47;15.80;;;;;;;11.93;100.00;97947.00;5010959;28;20625;-79
2022/04/23 06:14:46;;;;;;;20.57;15.43;;;;;;;12.03;100.00;97946.03;5007900;28;20265;-79
2022/04/23 06:17:15;;;;;;;18.63;15.70;;;;;;;11.90;100.00;97941.97;5009055;28;20201;-79
2022/04/23 06:19:45;;;;;;;18.07;15.53;;;;;;;12.12;100.00;97939.06;5007280;28;20196;-80
2022/04/23 06:22:14;;;;;;;19.00;15.63;;;;;;;12.09;100.00;97944.66;5009033;28;20226;-79
2022/04/23 06:24:42;;;;;;;17.83;15.93;;;;;;;12.01;100.00;97942.69;5016640;28;20220;-79
2022/04/23 06:27:11;;;;;;;21.47;16.10;;;;;;;11.99;100.00;97941.16;5073466;28;20227;-79
2022/04/23 06:29:39;;;;;;;18.63;15.73;;;;;;;12.20;100.00;97939.22;5072042;28;20333;-79
2022/04/23 06:32:09;;;;;;;21.60;16.43;;;;;;;12.20;100.00;97941.03;5038034;28;20223;-79
2022/04/23 06:34:38;;;;;;;20.63;16.80;;;;;;;12.31;100.00;97938.25;5035599;28;20196;-79
2022/04/23 06:37:10;;;;;;;21.33;17.13;;;;;;;12.17;100.00;97941.31;5062717;28;20196;-79
2022/04/23 06:39:39;;;;;;;21.50;17.63;;;;;;;12.08;100.00;97935.03;5068935;28;20275;-79
2022/04/23 06:42:08;;;;;;;23.77;17.90;;;;;;;12.22;100.00;97939.06;5073224;28;20196;-79
2022/04/23 06:44:36;;;;;;;21.37;18.17;;;;;;;12.19;100.00;97937.53;5007594;28;20273;-79
2022/04/23 06:47:06;;;;;;;21.60;18.07;;;;;;;12.29;100.00;97927.75;4946508;28;20228;-79
2022/04/23 06:49:34;;;;;;;25.90;19.60;;;;;;;12.44;100.00;97937.94;4944816;28;20228;-78
2022/04/23 06:52:05;;;;;;;23.27;18.90;;;;;;;12.42;100.00;97932.78;4944148;28;20207;-79
2022/04/23 06:54:35;;;;;;;20.00;17.10;;;;;;;12.50;100.00;97927.63;4947846;29;20189;-78
2022/04/23 06:57:05;;;;;;;23.90;19.83;;;;;;;12.67;100.00;97928.72;4949452;28;20196;-79
2022/04/23 06:59:34;;;;;;;22.90;18.57;;;;;;;12.74;100.00;97929.84;4895478;29;20245;-79
2022/04/23 07:02:04;;;;;;;22.47;19.70;;;;;;;12.80;100.00;97928.44;4911414;29;20205;-78
2022/04/23 07:04:34;;;;;;;23.70;18.97;;;;;;;13.07;100.00;97935.66;4909256;29;20273;-78
2022/04/23 07:07:05;;;;;;;22.50;18.73;;;;;;;13.12;100.00;97930.72;4908071;29;20225;-79
2022/04/23 07:09:35;;;;;;;21.00;18.53;;;;;;;13.21;100.00;97924.56;4900180;29;20206;-79
2022/04/23 07:12:04;;;;;;;22.70;19.37;;;;;;;13.51;100.00;97927.94;4974356;28;20209;-79
2022/04/23 07:14:34;;;;;;;22.77;19.33;;;;;;;13.50;100.00;97928.94;5007395;28;20202;-79
2022/04/23 07:17:10;;;;;;;21.33;18.03;;;;;;;13.50;100.00;97932.44;5009929;28;20213;-78
2022/04/23 07:19:43;;;;;;;21.77;18.03;;;;;;;13.56;100.00;97941.66;5008453;28;20203;-78
2022/04/23 07:22:13;;;;;;;20.00;17.47;;;;;;;13.44;100.00;97936.53;5007254;28;20224;-79
2022/04/23 07:24:50;;;;;;;23.07;18.90;;;;;;;13.39;100.00;97937.94;5005968;28;20197;-79
2022/04/23 07:27:18;;;;;;;23.43;18.10;;;;;;;13.53;100.00;97934.00;5005606;28;20317;-79
2022/04/23 07:29:49;;;;;;;25.13;19.37;;;;;;;13.75;100.00;97930.94;5030844;28;20194;-79
2022/04/23 07:32:20;;;;;;;21.10;16.83;;;;;;;13.90;100.00;97931.28;5070734;28;20192;-79
2022/04/23 07:37:34;;;;;;;22.17;17.53;;;;;;;13.83;100.00;97924.88;5072854;28;20195;-80
2022/04/23 07:40:10;;;;;;;19.47;16.20;;;;;;;14.11;100.00;97931.00;5075784;28;20196;-79
2022/04/23 07:42:40;;;;;;;20.37;17.10;;;;;;;14.23;100.00;97938.63;5075143;28;20251;-80
2022/04/23 07:45:10;;;;;;;20.03;16.67;;;;;;;14.32;100.00;97936.88;5073973;28;20204;-79
2022/04/23 07:47:39;;;;;;;21.63;17.43;;;;;;;14.24;100.00;97928.78;5072601;28;20200;-80
2022/04/23 07:50:08;;;;;;;19.53;16.13;;;;;;;14.53;100.00;97926.75;5076026;28;20188;-80
2022/04/23 07:52:38;;;;;;;19.00;15.93;;;;;;;14.71;100.00;97929.41;5076934;28;20192;-80
2022/04/23 07:55:10;;;;;;;18.60;15.43;;;;;;;14.66;100.00;97925.53;5051940;28;20201;-80
2022/04/23 07:57:38;;;;;;;16.73;14.13;;;;;;;14.47;100.00;97937.19;5050622;28;20698;-80
2022/04/23 08:00:09;;;;;;;20.03;15.23;;;;;;;14.25;100.00;97933.13;5049022;28;20231;-81
2022/04/23 08:02:38;;;;;;;18.03;15.50;;;;;;;14.15;100.00;97932.38;5044868;28;20196;-80
2022/04/23 08:05:12;;;;;;;16.23;14.43;;;;;;;14.46;100.00;97933.69;5028674;28;20207;-80
2022/04/23 08:07:44;;;;;;;18.53;14.87;;;;;;;14.32;100.00;97936.88;4973221;28;20210;-80
2022/04/23 08:10:16;;;;;;;16.00;13.90;;;;;;;14.36;100.00;97930.25;4974292;28;20203;-80
2022/04/23 08:12:46;;;;;;;18.80;14.40;;;;;;;14.48;100.00;97938.91;4977411;28;20723;-80
2022/04/23 08:15:14;;;;;;;19.57;15.27;;;;;;;14.34;100.00;97942.88;4986240;28;20263;-80
2022/04/23 08:17:44;;;;;;;19.67;14.83;;;;;;;14.49;100.00;97937.91;4992535;28;20195;-79
2022/04/23 08:20:14;;;;;;;17.90;15.23;;;;;;;14.54;100.00;97938.25;4987984;28;20199;-80
2022/04/23 08:22:43;;;;;;;18.37;15.50;;;;;;;14.60;100.00;97935.84;4996232;28;20206;-80
2022/04/23 08:25:11;;;;;;;19.13;14.73;;;;;;;14.63;100.00;97934.69;5013849;28;20243;-79
2022/04/23 08:27:53;;;;;;;18.60;15.43;;;;;;;14.69;100.00;97933.25;5017216;28;20233;-79
2022/04/23 08:30:34;;;;;;;19.73;15.47;;;;;;;14.58;100.00;97939.66;5013249;28;20215;-80
2022/04/23 08:33:02;;;;;;;20.13;15.13;;;;;;;14.78;100.00;97932.31;5061530;28;20647;-80
2022/04/23 08:35:33;;;;;;;18.97;15.83;;;;;;;14.42;100.00;97926.97;5018410;28;20689;-80
2022/04/23 08:38:02;;;;;;;20.90;15.90;;;;;;;14.47;100.00;97929.19;5014596;28;20198;-80
2022/04/23 08:40:35;;;;;;;18.27;14.20;;;;;;;14.43;100.00;97935.81;5012239;28;20290;-80
2022/04/23 08:43:06;;;;;;;19.87;15.67;;;;;;;14.46;100.00;97930.19;5010524;28;20670;-80
2022/04/23 08:45:37;;;;;;;23.17;18.37;;;;;;;14.51;100.00;97931.41;5014079;28;20194;-80
2022/04/23 08:48:09;;;;;;;29.30;21.10;;;;;;;14.43;100.00;97939.31;5014810;28;20254;-79
2022/04/23 08:50:39;;;;;;;18.57;14.90;;;;;;;14.55;100.00;97938.09;5010203;28;20205;-80
2022/04/23 08:53:13;;;;;;;17.80;15.00;;;;;;;14.60;100.00;97935.00;4978811;28;20194;-80
2022/04/23 08:55:44;;;;;;;16.73;13.17;;;;;;;14.54;100.00;97935.59;4977066;28;20583;-79
2022/04/23 08:58:17;;;;;;;14.83;11.27;;;;;;;14.42;100.00;97928.81;4974985;28;20203;-79
2022/04/23 09:00:50;;;;;;;14.87;11.50;;;;;;;14.36;100.00;97932.91;4972446;28;20200;-79
2022/04/23 09:03:22;;;;;;;15.33;11.70;;;;;;;14.59;100.00;97926.16;4972054;28;20203;-80
2022/04/23 09:05:52;;;;;;;14.93;11.87;;;;;;;14.58;100.00;97923.66;4971329;28;20298;-79
2022/04/23 09:08:21;;;;;;;17.00;13.07;;;;;;;14.65;100.00;97923.84;4973294;28;20207;-80
2022/04/23 09:10:54;;;;;;;17.67;13.47;;;;;;;14.51;100.00;97918.09;4988866;28;20299;-80
2022/04/23 09:13:28;;;;;;;17.37;12.80;;;;;;;14.58;100.00;97926.31;5029955;28;20267;-80
2022/04/23 09:24:47;;;;;;;19.57;14.30;;;;;;;14.29;100.00;97938.03;5075471;28;20280;-80
2022/04/23 09:27:17;;;;;;;19.27;14.67;;;;;;;14.39;100.00;97929.97;5108727;28;20210;-79
2022/04/23 09:30:05;;;;;;;17.97;14.60;;;;;;;14.49;100.00;97927.25;5110304;28;20187;-80
2022/04/23 09:32:34;;;;;;;19.83;14.47;;;;;;;14.39;100.00;97924.63;5110928;28;20194;-80
2022/04/23 09:35:07;;;;;;;18.63;14.37;;;;;;;14.55;100.00;97924.78;5074098;28;20653;-80
2022/04/23 09:40:22;;;;;;;18.63;12.83;;;;;;;14.60;100.00;97921.66;5113356;28;20258;-80
2022/04/23 09:42:58;;;;;;;17.03;13.30;;;;;;;14.60;100.00;97921.66;5106407;28;20214;-80
2022/04/23 09:45:30;;;;;;;18.60;14.80;;;;;;;14.56;100.00;97925.63;5047216;28;20220;-80
2022/04/23 09:48:15;;;;;;;19.50;16.03;;;;;;;14.40;100.00;97918.31;5048817;28;20225;-80
2022/04/23 09:50:46;;;;;;;20.83;16.03;;;;;;;14.42;100.00;97928.81;4991572;28;20206;-80
2022/04/23 09:53:16;;;;;;;21.67;16.50;;;;;;;14.34;100.00;97929.56;4989721;28;20199;-80
2022/04/23 09:55:47;;;;;;;22.27;17.53;;;;;;;14.23;100.00;97933.28;4986509;28;20195;-80
2022/04/23 09:58:19;;;;;;;21.87;17.43;;;;;;;14.15;100.00;97935.03;4949796;28;20199;-79
2022/04/23 10:00:52;;;;;;;23.57;17.57;;;;;;;14.29;100.00;97934.53;4915910;29;20633;-80
2022/04/23 10:03:27;;;;;;;24.37;19.03;;;;;;;14.21;100.00;97937.94;4939679;28;20204;-80
2022/04/23 10:05:56;;;;;;;26.37;20.27;;;;;;;14.33;100.00;97930.56;4973487;28;20220;-80
2022/04/23 10:08:36;;;;;;;25.57;19.30;;;;;;;14.42;100.00;97937.63;4992771;28;20720;-80
2022/04/23 10:11:12;;;;;;;27.50;20.63;;;;;;;14.28;100.00;97941.69;5030317;28;20201;-80
2022/04/23 10:13:44;;;;;;;26.00;20.83;;;;;;;14.24;100.00;97937.63;5030077;28;20511;-79
2022/04/23 10:16:18;;;;;;;27.13;21.43;;;;;;;14.42;100.00;97934.13;5001474;28;20194;-80
2022/04/23 10:18:47;;;;;;;25.23;20.97;;;;;;;14.58;100.00;97940.47;5043766;28;20217;-79
2022/04/23 10:21:21;;;;;;;25.43;21.70;;;;;;;14.57;100.00;97933.47;5069259;28;20185;-79
2022/04/23 10:24:10;;;;;;;32.57;22.53;;;;;;;14.71;100.00;97933.91;5049598;28;20282;-79
2022/04/23 10:26:48;;;;;;;25.87;21.43;;;;;;;14.73;100.00;97929.25;5051382;28;20228;-80
2022/04/23 10:29:22;;;;;;;27.63;21.83;;;;;;;14.68;100.00;97936.91;5048765;28;20196;-80
2022/04/23 10:32:22;;;;;;;30.63;23.40;;;;;;;14.40;100.00;97936.94;5049154;28;20188;-80
2022/04/23 10:34:53;;;;;;;34.67;25.87;;;;;;;14.14;100.00;97942.19;5035560;28;20201;-80
2022/04/23 10:37:24;;;;;;;32.60;24.03;;;;;;;14.24;100.00;97942.09;5047561;28;20205;-80
2022/04/23 10:40:18;;;;;;;28.23;22.77;;;;;;;14.41;100.00;97933.28;5046215;28;20193;-79
2022/04/23 10:43:09;;;;;;;30.07;23.73;;;;;;;14.45;100.00;97936.50;5045244;28;20208;-79
2022/04/23 10:45:41;;;;;;;30.20;23.73;;;;;;;14.78;100.00;97938.47;5052135;28;20197;-79
2022/04/23 10:48:27;;;;;;;32.17;25.53;;;;;;;14.86;100.00;97945.69;5054316;28;20691;-79
2022/04/23 10:51:04;;;;;;;33.23;25.63;;;;;;;15.16;100.00;97942.59;5071688;28;20226;-78
2022/04/23 10:53:55;;;;;;;33.50;24.87;;;;;;;15.59;100.00;97935.47;5073446;28;20200;-79
2022/04/23 10:56:26;;;;;;;31.20;24.37;;;;;;;15.66;100.00;97939.22;5072521;27;20563;-79
2022/04/23 10:58:56;;;;;;;30.63;24.87;;;;;;;15.73;100.00;97940.25;5074119;28;20192;-79
2022/04/23 11:01:26;;;;;;;30.40;24.43;;;;;;;15.70;100.00;97935.22;5077149;28;20291;-80
2022/04/23 11:04:12;;;;;;;31.17;24.73;;;;;;;15.71;100.00;97926.22;5075753;28;20200;-79
2022/04/23 11:12:34;;;;;;;32.97;26.13;;;;;;;15.58;100.00;97927.63;5051460;28;20694;-80
2022/04/23 11:15:12;;;;;;;30.43;25.43;;;;;;;15.53;100.00;97933.44;5071759;28;20204;-79
2022/04/23 11:18:04;;;;;;;35.83;25.50;;;;;;;15.25;100.00;97926.59;5077882;28;20196;-80
2022/04/23 11:20:38;;;;;;;31.47;25.27;;;;;;;15.35;100.00;97922.03;5070704;28;20197;-80
2022/04/23 11:23:07;;;;;;;30.03;24.30;;;;;;;15.26;100.00;97921.13;5073811;28;20283;-80
2022/04/23 11:25:36;;;;;;;30.53;24.23;;;;;;;15.38;100.00;97917.19;5073360;28;20192;-80
2022/04/23 11:28:16;;;;;;;29.30;23.50;;;;;;;15.67;100.00;97916.84;5050772;28;20220;-79
2022/04/23 11:30:48;;;;;;;29.93;24.40;;;;;;;15.41;100.00;97921.38;5049659;28;20287;-80
2022/04/23 11:33:18;;;;;;;30.87;24.13;;;;;;;15.45;100.00;97914.75;5045651;28;20272;-80
2022/04/23 11:35:48;;;;;;;31.07;22.80;;;;;;;15.52;100.00;97910.41;5048348;28;20196;-80
2022/04/23 11:38:36;;;;;;;29.80;24.33;;;;;;;15.55;100.00;97907.44;5046911;28;20201;-80
2022/04/23 11:41:05;;;;;;;31.50;23.77;;;;;;;15.63;100.00;97909.31;5046159;28;20184;-80
2022/04/23 11:43:39;;;;;;;30.77;24.30;;;;;;;15.25;100.00;97913.28;4984714;28;20246;-80
2022/04/23 11:46:09;;;;;;;29.10;23.23;;;;;;;15.38;100.00;97901.19;5005196;28;20294;-81
2022/04/23 11:48:46;;;;;;;28.17;22.57;;;;;;;15.35;100.00;97904.19;5027109;28;20225;-80